American A21N at Kahului on Jan 27th 2024, hard landing causes injuries

Last Update: January 29, 2024 / 17:25:21 GMT/Zulu time

Bookmark this article
Incident Facts

Date of incident
Jan 27, 2024

Classification
Accident

Flight number
AA-271

Aircraft Registration
N416AN

Aircraft Type
Airbus A321-Neo

ICAO Type Designator
A21N

Airport ICAO Code
PHOG

An American Airlines Airbus A321-200N, registration N416AN performing flight AA-271 from Los Angeles,CA to Kahului,HI (USA) with 167 passengers and 7 crew, landed on Kahului's runway 20 but touched down hard at about 14:05L (00:05Z Jan 28th). The aircraft rolled out without further incident, vacated the runway and stopped on the parallel taxiway. 5 cabin crew and one passenger received injuries and were taken to a local hospital.

The FAA reported: "American Airlines Flight 271, an Airbus A320, made a hard landing on Runway 20 at Kahului Airport in Hawaii at approximately 2 p.m. local time. Contact the airline for passenger information. The FAA will investigate."

Maui Police Department reported 6 individuals were taken to a hospital in stable condition.

The airline reported 5 cabin crew and one passenger were taken to a hospital and were released after the aircraft encountered an "issue" on landing in Kahului.

Metars:
PHOG 280254Z 20017KT 10SM SCT040 25/21 A2985 RMK AO2 PK WND 20027/0231 SLP112 T02500206 53004=
PHOG 280154Z 20016G26KT 10SM CLR 26/21 A2983 RMK AO2 PK WND 20028/0119 SLP106 T02610206=
PHOG 280054Z 20017G25KT 10SM FEW035 SCT060 26/21 A2983 RMK AO2 PK WND 19030/0023 SLP106 T02610206=
PHOG 272354Z 20023KT 10SM FEW020 SCT045 27/21 A2983 RMK AO2 PK WND 19030/2319 SLP108 T02670206 10272 20233 58029=
PHOG 272254Z 20016KT 10SM SCT025 SCT050 26/21 A2986 RMK AO2 PK WND 19027/2155 SLP118 T02610206=
PHOG 272154Z 20016G26KT 10SM SCT025 SCT050 26/21 A2990 RMK AO2 PK WND 17028/2129 SLP128 T02560206=
PHOG 272054Z 18016G26KT 10SM SCT030 SCT050 25/21 A2992 RMK AO2 PK WND 18027/2019 SLP137 T02500206 50006=
Aircraft Registration Data
Registration mark
N416AN
Country of Registration
United States
Date of Registration
KinmbAldhj kefcch Subscribe to unlock
TCDS Ident. No.
Manufacturer
AIRBUS
Aircraft Model / Type
A321-253NX
Number of Seats
ICAO Aircraft Type
A21N
Year of Manufacture
Serial Number
Aircraft Address / Mode S Code (HEX)
Engine Count
Engine Manufacturer
Engine Model
Engine Type
Pounds of Thrust
Main Owner
Dnffjdqljpbdjjhgdmbjjkjq epgjbdfAfbgApb bdAkdj jbpefp deegqiglkjnnphm fqdciqjej Subscribe to unlock
Incident Facts

Date of incident
Jan 27, 2024

Classification
Accident

Flight number
AA-271

Aircraft Registration
N416AN

Aircraft Type
Airbus A321-Neo

ICAO Type Designator
A21N

Airport ICAO Code
PHOG

This article is published under license from Avherald.com. © of text by Avherald.com.
Article source

You can read 2 more free articles without a subscription.

Subscribe now and continue reading without any limits!

Are you a subscriber? Login
Subscribe

Read unlimited articles and receive our daily update briefing. Gain better insights into what is happening in commercial aviation safety.

Send tip

Support AeroInside by sending a small tip amount.

Related articles

Newest articles

Subscribe today

Are you researching aviation incidents? Get access to AeroInside Insights, unlimited read access and receive the daily newsletter.

Pick your plan and subscribe

Partner

Blockaviation logo

A new way to document and demonstrate airworthiness compliance and aircraft value. Find out more.

ELITE Logo

ELITE Simulation Solutions is a leading global provider of Flight Simulation Training Devices, IFR training software as well as flight controls and related services. Find out more.

Blue Altitude Logo

Your regulation partner, specialists in aviation safety and compliance; providing training, auditing, and consultancy services. Find out more.

AeroInside Blog
Popular aircraft
Airbus A320
Boeing 737-800
Boeing 737-800 MAX
Popular airlines
American Airlines
United
Delta
Air Canada
Lufthansa
British Airways